Time;durP1;ratioP1;P1;durP2;ratioP2;P2;SDS_P1;SDS_P2;PMS_P1;PMS_P2;Temp;Humidity;BMP_temperature;BMP_pressure;BME280_temperature;BME280_humidity;BME280_pressure;Samples;Min_cycle;Max_cycle;Signal;HPM_P1;HPM_P2
2022/04/09 00:01:04;;;;;;;22.27;6.03;;;7.30;99.90;;;;;;5054460;28;20041;-70
2022/04/09 00:03:30;;;;;;;19.67;5.03;;;7.20;99.90;;;;;;5054797;28;20028;-68
2022/04/09 00:05:56;;;;;;;15.27;3.97;;;7.10;99.90;;;;;;5054574;28;20104;-69
2022/04/09 00:08:21;;;;;;;21.33;3.95;;;7.10;99.90;;;;;;5054860;28;20067;-67
2022/04/09 00:10:47;;;;;;;18.60;4.47;;;7.00;99.90;;;;;;5054841;28;20017;-72
2022/04/09 00:13:15;;;;;;;15.50;3.53;;;6.90;99.90;;;;;;5054248;28;20025;-66
2022/04/09 00:15:41;;;;;;;21.85;3.35;;;6.90;99.90;;;;;;5054136;28;20028;-69
2022/04/09 00:18:07;;;;;;;15.43;3.80;;;6.90;99.90;;;;;;5054535;28;20009;-67
2022/04/09 00:20:33;;;;;;;18.02;3.30;;;6.90;99.90;;;;;;5051713;28;20057;-68
2022/04/09 00:22:58;;;;;;;14.77;2.88;;;6.90;99.90;;;;;;5042640;28;20442;-67
2022/04/09 00:25:24;;;;;;;17.60;4.43;;;6.80;99.90;;;;;;5031465;28;20392;-69
2022/04/09 00:27:52;;;;;;;19.58;2.90;;;6.90;99.90;;;;;;5034083;28;20026;-68
2022/04/09 00:30:19;;;;;;;13.98;3.08;;;7.00;99.90;;;;;;5033568;28;20064;-68
2022/04/09 00:32:45;;;;;;;18.02;3.97;;;7.10;99.90;;;;;;5039208;28;20338;-67
2022/04/09 00:35:10;;;;;;;16.27;4.43;;;7.10;99.90;;;;;;5054585;28;20024;-70
2022/04/09 00:37:47;;;;;;;19.33;5.00;;;7.20;99.90;;;;;;5036995;28;20028;-72
2022/04/09 00:40:14;;;;;;;11.30;2.60;;;7.40;99.90;;;;;;5042586;28;20052;-68
2022/04/09 00:42:42;;;;;;;16.38;3.92;;;7.40;99.90;;;;;;5053707;28;20075;-70
2022/04/09 00:45:09;;;;;;;16.67;3.50;;;7.50;99.90;;;;;;5053918;28;20021;-68
2022/04/09 00:47:35;;;;;;;17.08;3.53;;;7.50;99.90;;;;;;5054452;28;20044;-68
2022/04/09 00:50:02;;;;;;;11.25;2.40;;;7.60;99.90;;;;;;5047726;28;20029;-68
2022/04/09 00:52:32;;;;;;;18.58;3.25;;;7.60;99.90;;;;;;5052404;28;20116;-72
2022/04/09 00:55:00;;;;;;;14.40;3.25;;;7.60;99.90;;;;;;5052577;28;20063;-69
2022/04/09 00:57:27;;;;;;;13.40;2.97;;;7.60;99.90;;;;;;5034612;28;20087;-72
2022/04/09 00:59:54;;;;;;;23.25;4.15;;;7.60;99.90;;;;;;5049318;28;20029;-67
2022/04/09 01:02:20;;;;;;;20.67;5.30;;;7.60;99.90;;;;;;5053179;28;20017;-70
2022/04/09 01:04:47;;;;;;;20.38;4.35;;;7.60;99.90;;;;;;5053453;28;20021;-70
2022/04/09 01:07:13;;;;;;;14.93;3.92;;;7.60;99.90;;;;;;5053338;28;20544;-67
2022/04/09 01:09:39;;;;;;;10.35;4.10;;;7.60;99.90;;;;;;5053365;28;20100;-70
2022/04/09 01:12:05;;;;;;;19.27;3.63;;;7.60;99.90;;;;;;5052446;28;20166;-69
2022/04/09 01:14:34;;;;;;;10.98;2.42;;;7.50;99.90;;;;;;5052890;28;20106;-69
2022/04/09 01:17:00;;;;;;;19.30;2.90;;;7.60;99.90;;;;;;5051921;28;20413;-69
2022/04/09 01:19:25;;;;;;;11.13;3.20;;;7.50;99.90;;;;;;5052928;28;20175;-70
2022/04/09 01:21:54;;;;;;;15.00;2.58;;;7.50;99.90;;;;;;5053088;28;20159;-70
2022/04/09 01:24:19;;;;;;;12.20;2.83;;;7.40;99.90;;;;;;5036521;28;20033;-67
2022/04/09 01:26:45;;;;;;;9.85;2.78;;;7.40;99.90;;;;;;5052957;28;20053;-67
2022/04/09 01:29:11;;;;;;;5.00;1.73;;;7.40;99.90;;;;;;5051538;28;20032;-69
2022/04/09 01:31:36;;;;;;;14.25;2.92;;;7.30;99.90;;;;;;5053071;28;20073;-71
2022/04/09 01:34:02;;;;;;;10.48;2.08;;;7.10;99.90;;;;;;5052358;28;20029;-68
2022/04/09 01:36:27;;;;;;;16.95;3.33;;;7.00;99.90;;;;;;5053188;28;20029;-68
2022/04/09 01:38:53;;;;;;;18.23;3.00;;;6.80;99.90;;;;;;5052565;28;20025;-69
2022/04/09 01:41:18;;;;;;;15.93;1.92;;;6.70;99.90;;;;;;5052697;28;20033;-71
2022/04/09 01:43:44;;;;;;;17.58;3.17;;;6.70;99.90;;;;;;5051579;28;20116;-71
2022/04/09 01:46:09;;;;;;;22.75;4.13;;;6.60;99.90;;;;;;5052211;28;20041;-68
2022/04/09 01:48:35;;;;;;;14.52;3.65;;;6.60;99.90;;;;;;5052383;28;20033;-68
2022/04/09 01:51:00;;;;;;;18.08;3.40;;;6.60;99.90;;;;;;5052225;28;20380;-69
2022/04/09 01:53:26;;;;;;;19.60;2.95;;;6.60;99.90;;;;;;5052114;28;20033;-68
2022/04/09 01:55:52;;;;;;;19.85;3.05;;;6.70;99.90;;;;;;5051937;28;20029;-69
2022/04/09 01:58:18;;;;;;;16.00;3.03;;;6.70;99.90;;;;;;5051961;28;20032;-68
2022/04/09 02:00:43;;;;;;;20.95;3.42;;;6.80;99.90;;;;;;5051803;28;20032;-69
2022/04/09 02:03:09;;;;;;;14.77;2.72;;;6.90;99.90;;;;;;5051903;28;20032;-68
2022/04/09 02:05:35;;;;;;;17.85;2.58;;;6.90;99.90;;;;;;5051750;28;20449;-69
2022/04/09 02:08:01;;;;;;;23.95;3.70;;;6.90;99.90;;;;;;5052021;28;20417;-70
2022/04/09 02:10:30;;;;;;;11.68;2.40;;;6.90;99.90;;;;;;5052500;28;20392;-69
2022/04/09 02:12:55;;;;;;;13.93;2.45;;;6.90;99.90;;;;;;5051897;28;20060;-72
2022/04/09 02:15:21;;;;;;;13.95;2.90;;;6.90;99.90;;;;;;5052364;28;20412;-73
2022/04/09 02:17:47;;;;;;;13.50;3.55;;;6.90;99.90;;;;;;5051836;28;20070;-68
2022/04/09 02:20:13;;;;;;;18.52;4.50;;;6.90;99.90;;;;;;5052227;28;20028;-69
2022/04/09 02:22:45;;;;;;;14.10;4.05;;;6.90;99.90;;;;;;5051065;28;20520;-71
2022/04/09 02:25:13;;;;;;;16.40;3.63;;;6.90;99.90;;;;;;5051690;28;20057;-71
2022/04/09 02:27:38;;;;;;;14.15;3.90;;;6.90;99.90;;;;;;5052826;28;20411;-68
2022/04/09 02:30:06;;;;;;;8.05;2.05;;;7.00;99.90;;;;;;5052017;28;20107;-69
2022/04/09 02:32:32;;;;;;;9.10;2.28;;;6.90;99.90;;;;;;5054005;28;20033;-70
2022/04/09 02:34:57;;;;;;;10.52;2.47;;;6.80;99.90;;;;;;5053637;28;20032;-71
2022/04/09 02:37:23;;;;;;;15.20;2.25;;;6.70;99.90;;;;;;5052450;28;20040;-70
2022/04/09 02:39:49;;;;;;;17.17;3.58;;;6.60;99.90;;;;;;5052064;28;20028;-71
2022/04/09 02:42:14;;;;;;;16.17;4.28;;;6.60;99.90;;;;;;5052292;28;20057;-71
2022/04/09 02:44:41;;;;;;;12.70;2.17;;;6.50;99.90;;;;;;5051552;28;20025;-71
2022/04/09 02:47:06;;;;;;;9.88;2.20;;;6.50;99.90;;;;;;5051882;28;20041;-72
2022/04/09 02:49:32;;;;;;;14.07;2.67;;;6.50;99.90;;;;;;5052127;28;20032;-73
2022/04/09 02:51:58;;;;;;;16.00;1.92;;;6.40;99.90;;;;;;5050727;28;20040;-72
2022/04/09 02:54:24;;;;;;;12.65;2.63;;;6.40;99.90;;;;;;5051740;28;20100;-69
2022/04/09 02:56:49;;;;;;;14.75;2.35;;;6.40;99.90;;;;;;5048273;28;20443;-69
2022/04/09 02:59:15;;;;;;;20.92;2.30;;;6.40;99.90;;;;;;5051408;28;20029;-70
2022/04/09 03:01:45;;;;;;;14.38;2.47;;;6.40;99.90;;;;;;5050433;28;20408;-70
2022/04/09 03:04:11;;;;;;;4.97;1.65;;;6.40;99.90;;;;;;5051224;28;20466;-68
2022/04/09 03:06:36;;;;;;;12.13;2.17;;;6.40;99.90;;;;;;5051422;28;20132;-67
2022/04/09 03:09:02;;;;;;;11.52;2.05;;;6.40;99.90;;;;;;5054213;28;20052;-70
2022/04/09 03:11:28;;;;;;;11.85;1.80;;;6.40;99.90;;;;;;5056153;28;20028;-70
2022/04/09 03:13:53;;;;;;;6.60;1.45;;;6.40;99.90;;;;;;5055611;28;20499;-69
2022/04/09 03:16:19;;;;;;;13.35;2.17;;;6.50;99.90;;;;;;5055292;28;20033;-71
2022/04/09 03:18:44;;;;;;;15.38;2.25;;;6.50;99.90;;;;;;5055287;28;20103;-68
2022/04/09 03:21:10;;;;;;;13.40;2.30;;;6.50;99.90;;;;;;5055181;28;20024;-70
2022/04/09 03:23:35;;;;;;;11.48;2.03;;;6.60;99.90;;;;;;5054097;28;20021;-67
2022/04/09 03:26:01;;;;;;;17.65;2.08;;;6.70;99.90;;;;;;5054284;28;20064;-70
2022/04/09 03:28:27;;;;;;;8.30;1.50;;;6.70;99.90;;;;;;5054066;28;20672;-73
2022/04/09 03:30:52;;;;;;;17.08;2.80;;;6.80;99.90;;;;;;5055295;28;20034;-66
2022/04/09 03:33:18;;;;;;;15.48;2.47;;;6.80;99.90;;;;;;5055196;28;20025;-71
2022/04/09 03:35:44;;;;;;;13.20;2.72;;;6.80;99.90;;;;;;5054727;28;20095;-70
2022/04/09 03:38:11;;;;;;;7.45;1.38;;;6.80;99.90;;;;;;5055017;28;20060;-70
2022/04/09 03:40:38;;;;;;;11.02;1.88;;;6.80;99.90;;;;;;5055303;28;20024;-68
2022/04/09 03:43:03;;;;;;;11.18;1.83;;;6.80;99.90;;;;;;5055166;28;20483;-71
2022/04/09 03:45:29;;;;;;;17.23;2.03;;;6.90;99.90;;;;;;5054937;28;20048;-70
2022/04/09 03:47:55;;;;;;;9.95;2.05;;;6.90;99.90;;;;;;5054817;28;20496;-68
2022/04/09 03:50:21;;;;;;;21.85;2.63;;;7.00;99.90;;;;;;5054447;28;20119;-70
2022/04/09 03:52:46;;;;;;;10.40;1.77;;;7.00;99.90;;;;;;5054037;28;20025;-71
2022/04/09 03:55:13;;;;;;;10.02;2.67;;;7.10;99.90;;;;;;5054660;28;20043;-72
2022/04/09 03:57:38;;;;;;;13.23;3.70;;;7.10;99.90;;;;;;5054747;28;20060;-73
2022/04/09 04:00:05;;;;;;;17.33;4.22;;;7.10;99.90;;;;;;5054039;28;20433;-69
2022/04/09 04:02:30;;;;;;;18.75;4.80;;;7.00;99.90;;;;;;5053232;28;20104;-68
2022/04/09 04:05:01;;;;;;;15.27;3.45;;;6.90;99.90;;;;;;5053259;28;20116;-70
2022/04/09 04:07:27;;;;;;;11.90;2.30;;;6.90;99.90;;;;;;5054329;28;20473;-69
2022/04/09 04:09:52;;;;;;;16.27;3.08;;;6.80;99.90;;;;;;5053653;28;20037;-70
2022/04/09 04:12:18;;;;;;;17.48;2.78;;;6.80;99.90;;;;;;5053584;28;20035;-71
2022/04/09 04:14:44;;;;;;;16.92;3.70;;;6.70;99.90;;;;;;5053941;28;20130;-71
2022/04/09 04:17:10;;;;;;;10.25;2.40;;;6.70;99.90;;;;;;5054720;28;20492;-69
2022/04/09 04:19:36;;;;;;;8.55;1.88;;;6.70;99.90;;;;;;5053251;28;20017;-70
2022/04/09 04:22:02;;;;;;;4.28;1.80;;;6.70;99.90;;;;;;5053399;28;20496;-69
2022/04/09 04:24:28;;;;;;;12.07;1.92;;;6.70;99.90;;;;;;5054152;28;20115;-69
2022/04/09 04:26:54;;;;;;;8.73;1.83;;;6.70;99.90;;;;;;5052967;28;20512;-69
2022/04/09 04:29:19;;;;;;;13.27;2.72;;;6.80;99.90;;;;;;5053584;28;20104;-70
2022/04/09 04:31:45;;;;;;;6.68;1.83;;;6.90;99.90;;;;;;5053431;28;20032;-72
2022/04/09 04:34:10;;;;;;;15.85;3.05;;;6.90;99.90;;;;;;5054323;28;20100;-74
2022/04/09 04:36:36;;;;;;;9.48;2.30;;;7.00;99.90;;;;;;5053944;28;20364;-72
2022/04/09 04:39:02;;;;;;;21.83;3.03;;;7.10;99.90;;;;;;5054457;28;20029;-71
2022/04/09 04:41:28;;;;;;;13.85;2.33;;;7.20;99.90;;;;;;5053494;28;20462;-71
2022/04/09 04:43:54;;;;;;;9.18;2.53;;;7.20;99.90;;;;;;5053701;28;20029;-69
2022/04/09 04:46:20;;;;;;;10.70;2.58;;;7.30;99.90;;;;;;5051579;28;20041;-69
2022/04/09 04:48:46;;;;;;;10.93;1.80;;;7.30;99.90;;;;;;5052616;28;20029;-70
2022/04/09 04:51:12;;;;;;;13.32;2.80;;;7.20;99.90;;;;;;5053296;28;20369;-73
2022/04/09 04:53:38;;;;;;;11.10;2.63;;;7.20;99.90;;;;;;5052333;28;20025;-71
2022/04/09 04:56:03;;;;;;;12.43;3.20;;;7.20;99.90;;;;;;5052419;28;20037;-72
2022/04/09 04:58:29;;;;;;;15.43;2.42;;;7.20;99.90;;;;;;5053621;28;20032;-73
2022/04/09 05:00:55;;;;;;;15.00;2.80;;;7.10;99.90;;;;;;5051805;28;20465;-71
2022/04/09 05:03:21;;;;;;;17.02;3.13;;;7.20;99.90;;;;;;5053236;28;20029;-73
2022/04/09 05:05:47;;;;;;;13.55;2.47;;;7.20;99.90;;;;;;5054195;28;20369;-73
2022/04/09 05:08:12;;;;;;;7.97;2.42;;;7.20;99.90;;;;;;5053561;28;20024;-72
2022/04/09 05:10:38;;;;;;;15.90;2.95;;;7.20;99.90;;;;;;5052659;28;20417;-68
2022/04/09 05:13:04;;;;;;;11.98;1.83;;;7.30;99.90;;;;;;5053147;28;20469;-71
2022/04/09 05:15:30;;;;;;;10.90;2.47;;;7.30;99.90;;;;;;5051496;28;20124;-73
2022/04/09 05:17:56;;;;;;;6.00;1.50;;;7.30;99.90;;;;;;5053210;28;20163;-70
2022/04/09 05:20:22;;;;;;;9.60;2.20;;;7.30;99.90;;;;;;5052708;28;20380;-72
2022/04/09 05:22:47;;;;;;;12.82;2.08;;;7.30;99.90;;;;;;5053217;28;20020;-69
2022/04/09 05:25:16;;;;;;;12.45;2.45;;;7.30;99.90;;;;;;5052859;28;20396;-71
2022/04/09 05:27:43;;;;;;;8.20;1.98;;;7.30;99.90;;;;;;5051995;28;20369;-72
2022/04/09 05:30:09;;;;;;;11.50;1.77;;;7.30;99.90;;;;;;5052043;28;20079;-72
2022/04/09 05:32:36;;;;;;;9.80;1.75;;;7.30;99.90;;;;;;5053144;28;20060;-72
2022/04/09 05:35:08;;;;;;;12.45;1.83;;;7.30;99.90;;;;;;5051448;28;20029;-69
2022/04/09 05:37:34;;;;;;;9.45;2.28;;;7.30;99.90;;;;;;5052424;28;20017;-70
2022/04/09 05:39:59;;;;;;;12.98;2.45;;;7.30;99.90;;;;;;5052849;28;20027;-70
2022/04/09 05:42:25;;;;;;;9.20;1.63;;;7.30;99.90;;;;;;5052075;28;20124;-72
2022/04/09 05:44:52;;;;;;;14.90;2.13;;;7.20;99.90;;;;;;5052473;28;20060;-72
2022/04/09 05:47:18;;;;;;;12.48;2.50;;;7.20;99.90;;;;;;5052506;28;20033;-70
2022/04/09 05:49:44;;;;;;;14.80;2.20;;;7.30;99.90;;;;;;5052804;28;20032;-72
2022/04/09 05:52:09;;;;;;;12.75;2.05;;;7.40;99.90;;;;;;5051986;28;20023;-71
2022/04/09 05:54:35;;;;;;;13.35;1.75;;;7.40;99.90;;;;;;5052031;28;20085;-71
2022/04/09 05:57:01;;;;;;;13.48;1.63;;;7.50;99.90;;;;;;5053112;28;20032;-71
2022/04/09 05:59:27;;;;;;;15.93;2.85;;;7.60;99.90;;;;;;5052459;28;20465;-72
2022/04/09 06:01:53;;;;;;;14.18;2.00;;;7.60;99.90;;;;;;5052929;28;20027;-71
2022/04/09 06:04:20;;;;;;;11.50;1.30;;;7.70;99.90;;;;;;5052983;28;20110;-68
2022/04/09 06:06:46;;;;;;;6.93;1.73;;;7.60;99.90;;;;;;5052948;28;20037;-65
2022/04/09 06:09:12;;;;;;;11.25;1.85;;;7.60;99.90;;;;;;5052761;28;20021;-69
2022/04/09 06:11:37;;;;;;;7.18;1.30;;;7.60;99.90;;;;;;5052359;28;20368;-67
2022/04/09 06:14:03;;;;;;;8.38;1.92;;;7.60;99.90;;;;;;5052624;28;20025;-68
2022/04/09 06:16:30;;;;;;;11.20;1.90;;;7.60;99.90;;;;;;5052655;28;20040;-72
2022/04/09 06:18:56;;;;;;;10.45;1.88;;;7.80;99.90;;;;;;5052337;28;20100;-70
2022/04/09 06:21:21;;;;;;;4.45;1.20;;;7.90;99.90;;;;;;5052270;28;20110;-69
2022/04/09 06:23:47;;;;;;;11.65;1.60;;;8.00;99.90;;;;;;5052414;28;20018;-69
2022/04/09 06:26:12;;;;;;;8.85;1.42;;;8.10;99.90;;;;;;5052408;28;20350;-69
2022/04/09 06:28:38;;;;;;;12.05;1.90;;;8.20;99.90;;;;;;5052432;28;20047;-70
2022/04/09 06:31:03;;;;;;;11.68;1.85;;;8.30;99.90;;;;;;5052731;28;20028;-67
2022/04/09 06:33:29;;;;;;;12.00;2.13;;;8.40;99.90;;;;;;5037293;28;20022;-72
2022/04/09 06:35:55;;;;;;;15.45;3.10;;;8.40;99.90;;;;;;5032598;28;20101;-72
2022/04/09 06:38:20;;;;;;;10.98;2.00;;;8.50;99.90;;;;;;5032366;28;20026;-67
2022/04/09 06:40:46;;;;;;;13.15;3.75;;;8.60;99.90;;;;;;5032739;28;20037;-72
2022/04/09 06:43:11;;;;;;;10.00;2.00;;;8.60;99.90;;;;;;5035245;28;20022;-71
2022/04/09 06:45:37;;;;;;;8.52;2.03;;;8.60;99.90;;;;;;5037043;28;20487;-67
2022/04/09 06:48:03;;;;;;;17.85;3.17;;;8.50;99.90;;;;;;5046825;28;20025;-66
2022/04/09 06:50:29;;;;;;;12.30;2.22;;;8.50;99.90;;;;;;5055756;28;20025;-69
2022/04/09 06:52:54;;;;;;;9.82;2.72;;;8.30;99.90;;;;;;5055921;28;20067;-69
2022/04/09 06:55:20;;;;;;;12.93;2.25;;;8.30;99.90;;;;;;5055877;28;20027;-68
2022/04/09 06:57:45;;;;;;;13.10;2.42;;;8.20;99.90;;;;;;5055794;28;20091;-72
2022/04/09 07:00:16;;;;;;;14.60;2.38;;;8.10;99.90;;;;;;5055494;28;20908;-71
2022/04/09 07:02:42;;;;;;;12.70;2.55;;;8.30;99.90;;;;;;5055843;28;20506;-67
2022/04/09 07:05:08;;;;;;;16.17;2.05;;;8.50;99.90;;;;;;5055409;28;20029;-71
2022/04/09 07:07:34;;;;;;;7.45;1.85;;;8.80;99.90;;;;;;5055330;28;20032;-70
2022/04/09 07:10:06;;;;;;;8.63;1.83;;;9.10;99.90;;;;;;5054841;28;20033;-68
2022/04/09 07:12:31;;;;;;;12.07;2.22;;;9.30;99.90;;;;;;5056103;28;20024;-69
2022/04/09 07:14:57;;;;;;;8.13;1.60;;;9.20;99.90;;;;;;5055889;28;20036;-69
2022/04/09 07:17:24;;;;;;;13.82;2.00;;;9.30;99.90;;;;;;5055755;28;20488;-69
2022/04/09 07:19:50;;;;;;;8.00;1.70;;;9.30;99.90;;;;;;5054718;28;20028;-71
2022/04/09 07:22:16;;;;;;;11.02;2.50;;;9.30;99.90;;;;;;5055748;28;20029;-70
2022/04/09 07:24:42;;;;;;;7.13;1.50;;;9.20;99.90;;;;;;5054871;28;20058;-67
2022/04/09 07:27:07;;;;;;;10.68;1.85;;;9.10;99.90;;;;;;5055452;28;20055;-72
2022/04/09 07:29:33;;;;;;;13.18;1.77;;;9.30;99.90;;;;;;5055226;28;20051;-70
2022/04/09 07:31:58;;;;;;;8.77;1.52;;;9.60;99.90;;;;;;5055250;28;20085;-67
2022/04/09 07:34:24;;;;;;;8.20;1.30;;;9.90;99.90;;;;;;5053580;28;20066;-68
2022/04/09 07:36:49;;;;;;;7.90;1.42;;;10.20;99.90;;;;;;5054137;28;20089;-67
2022/04/09 07:39:15;;;;;;;13.20;1.75;;;10.60;99.90;;;;;;5054006;28;20021;-71
2022/04/09 07:41:41;;;;;;;8.15;1.73;;;11.00;99.90;;;;;;5055566;28;20369;-72
2022/04/09 07:44:06;;;;;;;16.38;2.15;;;11.60;99.90;;;;;;5054960;28;20032;-68
2022/04/09 07:46:32;;;;;;;10.02;2.28;;;12.30;99.90;;;;;;5055223;28;20025;-67
2022/04/09 07:48:58;;;;;;;14.18;1.77;;;13.00;99.90;;;;;;5055175;28;20103;-68
2022/04/09 07:51:23;;;;;;;6.72;1.20;;;13.40;99.90;;;;;;5055120;28;20411;-66
2022/04/09 07:53:49;;;;;;;11.65;1.95;;;13.40;99.90;;;;;;5035467;28;20105;-69
2022/04/09 07:56:15;;;;;;;15.77;2.63;;;13.20;99.90;;;;;;5052385;28;20043;-68
2022/04/09 07:58:43;;;;;;;7.40;1.38;;;12.80;99.90;;;;;;5055383;28;20433;-67
2022/04/09 08:01:08;;;;;;;11.70;1.55;;;12.60;99.90;;;;;;5052830;28;20029;-68
2022/04/09 08:03:34;;;;;;;7.45;1.20;;;13.10;99.90;;;;;;5054645;28;20035;-71
2022/04/09 08:06:00;;;;;;;7.05;1.73;;;13.60;99.70;;;;;;5054603;28;20036;-67
2022/04/09 08:08:25;;;;;;;5.68;1.73;;;14.40;98.90;;;;;;5054228;28;20439;-73
2022/04/09 08:10:51;;;;;;;13.60;2.13;;;14.70;98.80;;;;;;5054589;28;20358;-69
2022/04/09 08:13:17;;;;;;;9.30;2.25;;;14.90;98.30;;;;;;5054859;28;20041;-70
2022/04/09 08:15:43;;;;;;;11.82;2.67;;;14.70;99.10;;;;;;5053966;28;20063;-70
2022/04/09 08:18:09;;;;;;;9.60;2.20;;;14.20;99.80;;;;;;5046650;28;20113;-65
2022/04/09 08:20:36;;;;;;;11.30;2.30;;;13.60;99.90;;;;;;5054460;28;20017;-69
2022/04/09 08:23:02;;;;;;;10.32;2.28;;;13.00;99.90;;;;;;5048241;28;20029;-66
2022/04/09 08:25:27;;;;;;;8.48;1.40;;;12.50;99.90;;;;;;5043582;28;20419;-68
2022/04/09 08:27:53;;;;;;;10.63;1.80;;;11.90;99.90;;;;;;5044903;28;20029;-66
2022/04/09 08:30:19;;;;;;;12.55;2.05;;;11.50;99.90;;;;;;5034952;28;20650;-69
2022/04/09 08:32:45;;;;;;;11.60;2.30;;;11.20;99.90;;;;;;5043546;28;20032;-68
2022/04/09 08:35:11;;;;;;;9.32;1.45;;;11.00;99.90;;;;;;5035226;28;20029;-67
2022/04/09 08:37:37;;;;;;;10.48;2.10;;;11.20;99.90;;;;;;5034292;28;20021;-70
2022/04/09 08:40:03;;;;;;;8.45;1.35;;;12.30;99.90;;;;;;5038960;28;20065;-69
2022/04/09 08:42:30;;;;;;;6.93;1.83;;;13.70;99.90;;;;;;5052341;28;20033;-69
2022/04/09 08:44:56;;;;;;;8.73;1.60;;;14.90;99.60;;;;;;5054344;28;20017;-71
2022/04/09 08:47:25;;;;;;;6.47;1.42;;;15.70;98.50;;;;;;5053857;28;20031;-69
2022/04/09 08:49:52;;;;;;;2.53;0.68;;;15.90;96.20;;;;;;5048895;28;20059;-68
2022/04/09 08:52:17;;;;;;;4.80;1.20;;;15.60;95.60;;;;;;5054047;28;20032;-67
2022/04/09 08:54:43;;;;;;;4.68;1.02;;;15.20;96.50;;;;;;5053887;28;20013;-70
2022/04/09 08:57:09;;;;;;;7.60;1.80;;;15.60;96.00;;;;;;5047216;28;20029;-71
2022/04/09 08:59:35;;;;;;;8.93;1.67;;;16.00;95.50;;;;;;5053979;28;20059;-69
2022/04/09 09:02:02;;;;;;;4.32;1.30;;;15.60;95.80;;;;;;5053750;28;20032;-69
2022/04/09 09:04:28;;;;;;;6.60;1.60;;;15.00;96.60;;;;;;5054064;28;20017;-69
2022/04/09 09:06:53;;;;;;;12.27;1.65;;;14.60;97.40;;;;;;5051490;28;20036;-70
2022/04/09 09:09:29;;;;;;;9.45;1.60;;;14.70;97.80;;;;;;5053864;28;20096;-70
2022/04/09 09:11:55;;;;;;;6.07;2.03;;;14.80;97.90;;;;;;5053827;28;20453;-71
2022/04/09 09:14:32;;;;;;;12.25;1.70;;;15.10;97.50;;;;;;5046837;28;20057;-70
2022/04/09 09:16:59;;;;;;;12.23;2.00;;;16.00;96.80;;;;;;5038549;28;20049;-67
2022/04/09 09:19:45;;;;;;;6.85;1.33;;;17.00;95.60;;;;;;5045277;28;20022;-69
2022/04/09 09:22:11;;;;;;;8.98;1.95;;;17.50;94.90;;;;;;5051818;28;20368;-69
2022/04/09 09:24:37;;;;;;;5.57;1.23;;;17.10;94.60;;;;;;5053316;28;20437;-66
2022/04/09 09:27:04;;;;;;;9.68;1.90;;;16.30;95.10;;;;;;5052835;28;20125;-71
2022/04/09 09:29:31;;;;;;;10.23;1.63;;;15.20;96.30;;;;;;5052172;28;20024;-69
2022/04/09 09:31:59;;;;;;;7.55;1.17;;;14.10;98.60;;;;;;5051739;28;20025;-68
2022/04/09 09:34:25;;;;;;;9.50;1.45;;;13.20;99.70;;;;;;5053201;28;20020;-69
2022/04/09 09:36:51;;;;;;;5.55;1.10;;;12.30;99.90;;;;;;5055040;28;20024;-69
2022/04/09 09:39:22;;;;;;;7.10;1.10;;;11.50;99.90;;;;;;5044387;28;20373;-70
2022/04/09 09:41:55;;;;;;;4.60;1.00;;;11.00;99.90;;;;;;5034188;28;20025;-71
2022/04/09 09:44:23;;;;;;;7.30;2.60;;;10.70;99.90;;;;;;5034794;28;20024;-69
2022/04/09 09:46:50;;;;;;;9.02;1.77;;;10.70;99.90;;;;;;5032948;28;20092;-70
2022/04/09 09:49:20;;;;;;;5.20;1.23;;;10.50;99.90;;;;;;5033738;28;20045;-71
2022/04/09 09:52:03;;;;;;;6.75;1.10;;;10.20;99.90;;;;;;5053054;28;20109;-71
2022/04/09 09:54:29;;;;;;;5.57;1.45;;;10.10;99.90;;;;;;5052755;28;20023;-68
2022/04/09 09:56:55;;;;;;;6.47;1.10;;;10.60;99.90;;;;;;5041337;28;20025;-69
2022/04/09 09:59:22;;;;;;;9.27;2.92;;;11.80;99.90;;;;;;5035797;28;20299;-69
2022/04/09 10:01:48;;;;;;;8.38;1.67;;;12.50;99.90;;;;;;5053023;28;20142;-70
2022/04/09 10:04:14;;;;;;;12.40;1.80;;;13.40;99.90;;;;;;5041508;28;20028;-72
2022/04/09 10:06:44;;;;;;;8.77;1.73;;;14.80;99.90;;;;;;5048290;28;20041;-68
2022/04/09 10:09:13;;;;;;;5.38;1.00;;;15.90;99.90;;;;;;5037772;28;20036;-70
2022/04/09 10:11:49;;;;;;;5.60;1.00;;;16.20;98.10;;;;;;5051792;28;20016;-70
2022/04/09 10:14:21;;;;;;;3.20;1.10;;;16.70;97.00;;;;;;5052480;28;20369;-69
2022/04/09 10:16:48;;;;;;;3.38;1.05;;;17.30;95.90;;;;;;5052338;28;20036;-66
2022/04/09 10:19:17;;;;;;;3.95;1.00;;;17.80;94.70;;;;;;5051715;28;20074;-70
2022/04/09 10:21:46;;;;;;;6.90;1.50;;;18.30;93.90;;;;;;5032871;28;20040;-65
2022/04/09 10:24:20;;;;;;;9.82;1.50;;;18.80;93.60;;;;;;5040120;28;20025;-67
2022/04/09 10:26:46;;;;;;;6.82;1.42;;;19.30;93.30;;;;;;5044963;28;20141;-69
2022/04/09 10:29:13;;;;;;;7.03;1.60;;;19.40;92.90;;;;;;5051301;28;20128;-71
2022/04/09 10:31:40;;;;;;;2.95;1.15;;;18.70;93.10;;;;;;5051040;28;20025;-68
2022/04/09 10:34:10;;;;;;;12.77;1.88;;;17.70;93.30;;;;;;5052701;28;20060;-69
2022/04/09 10:36:45;;;;;;;10.25;2.58;;;16.70;94.60;;;;;;5053853;28;20025;-69
2022/04/09 10:39:22;;;;;;;8.55;2.13;;;16.10;95.10;;;;;;5047298;28;20029;-70
2022/04/09 10:41:54;;;;;;;9.80;1.80;;;15.50;95.80;;;;;;5036772;28;20048;-67
2022/04/09 10:44:33;;;;;;;5.88;1.30;;;14.90;97.10;;;;;;5059235;28;20017;-68
2022/04/09 10:47:03;;;;;;;7.15;1.98;;;14.30;96.90;;;;;;5052085;28;20538;-70
2022/04/09 10:49:30;;;;;;;9.95;1.90;;;13.80;97.00;;;;;;5049787;28;20468;-68
2022/04/09 10:52:05;;;;;;;8.18;1.60;;;13.50;97.30;;;;;;5053045;28;20034;-68
2022/04/09 10:54:30;;;;;;;10.45;1.90;;;13.40;98.10;;;;;;5061796;28;20146;-67
2022/04/09 10:57:06;;;;;;;10.95;2.00;;;13.50;98.40;;;;;;5051831;28;20112;-69
2022/04/09 10:59:33;;;;;;;10.57;2.28;;;13.40;99.10;;;;;;5050688;28;20025;-66
2022/04/09 11:01:59;;;;;;;12.50;2.42;;;13.20;99.70;;;;;;5050879;28;20029;-69
2022/04/09 11:07:12;;;;;;;7.30;1.98;;;12.80;99.30;;;;;;5050524;28;20075;-71
2022/04/09 11:09:49;;;;;;;9.07;1.90;;;13.10;99.00;;;;;;5055095;28;20457;-67
2022/04/09 11:12:21;;;;;;;11.77;1.90;;;13.90;98.20;;;;;;5052005;28;20036;-68
2022/04/09 11:14:54;;;;;;;7.45;1.77;;;14.50;97.70;;;;;;5048317;28;20029;-71
2022/04/09 11:17:35;;;;;;;8.07;1.92;;;15.20;97.00;;;;;;5050322;28;20033;-68
2022/04/09 11:20:06;;;;;;;13.32;2.58;;;15.70;95.80;;;;;;5044485;28;20054;-68
2022/04/09 11:22:38;;;;;;;9.10;1.70;;;16.10;95.30;;;;;;5050296;28;20036;-70
2022/04/09 11:25:06;;;;;;;12.55;2.65;;;16.00;95.50;;;;;;5049228;28;20026;-67
2022/04/09 11:27:32;;;;;;;11.38;2.60;;;16.00;95.00;;;;;;5050260;28;20075;-70
2022/04/09 11:29:58;;;;;;;11.70;3.00;;;16.30;95.00;;;;;;5050581;28;20141;-66
2022/04/09 11:32:24;;;;;;;11.57;2.05;;;16.40;94.60;;;;;;5052828;28;20112;-67
2022/04/09 11:35:00;;;;;;;8.43;2.67;;;16.20;95.20;;;;;;5053917;28;20023;-68
2022/04/09 11:37:32;;;;;;;13.80;2.13;;;15.60;95.70;;;;;;5055105;28;20025;-69
2022/04/09 11:40:05;;;;;;;8.63;1.80;;;15.00;96.70;;;;;;5055812;28;20514;-66
2022/04/09 11:42:47;;;;;;;11.82;2.15;;;14.40;96.90;;;;;;5052468;28;20031;-68
2022/04/09 11:45:34;;;;;;;;;;;13.90;97.50;;;;;;5074938;28;20016;-70
2022/04/09 11:48:01;;;;;;;10.57;2.20;;;14.20;97.90;;;;;;5059525;28;19919;-68
2022/04/09 11:50:32;;;;;;;9.93;1.75;;;15.00;96.30;;;;;;5054235;28;20086;-65
2022/04/09 11:53:14;;;;;;;8.10;1.92;;;15.30;95.20;;;;;;5039946;28;20037;-67
2022/04/09 11:55:42;;;;;;;7.43;1.58;;;15.20;94.20;;;;;;5043410;28;20112;-69
2022/04/09 11:58:08;;;;;;;9.35;1.58;;;15.20;94.20;;;;;;5044177;28;20174;-66
2022/04/09 12:00:41;;;;;;;9.05;1.60;;;15.10;94.40;;;;;;5046231;28;20017;-68
2022/04/09 12:03:07;;;;;;;7.63;1.20;;;14.80;95.00;;;;;;5045711;28;20033;-67
2022/04/09 12:05:43;;;;;;;10.43;1.40;;;14.60;95.10;;;;;;5054578;28;20075;-69
2022/04/09 12:08:14;;;;;;;7.30;1.30;;;14.20;95.80;;;;;;5054527;28;20095;-66
2022/04/09 12:10:57;;;;;;;6.57;1.35;;;13.80;96.30;;;;;;5054181;28;20032;-68
2022/04/09 12:13:29;;;;;;;8.10;1.77;;;13.40;97.10;;;;;;5050720;28;20384;-68
2022/04/09 12:16:01;;;;;;;7.40;1.55;;;13.00;97.30;;;;;;5054590;28;20028;-69
2022/04/09 12:18:31;;;;;;;12.63;1.98;;;12.60;97.60;;;;;;5053481;28;20365;-69
2022/04/09 12:20:59;;;;;;;7.78;1.40;;;12.40;98.10;;;;;;5040285;28;20028;-67
2022/04/09 12:23:29;;;;;;;14.80;1.77;;;12.40;98.80;;;;;;5054468;28;20111;-66
2022/04/09 12:25:55;;;;;;;12.32;1.85;;;12.40;99.00;;;;;;5054673;28;20162;-69
2022/04/09 12:28:24;;;;;;;9.15;1.70;;;12.20;99.30;;;;;;5054334;28;20465;-68
2022/04/09 12:30:51;;;;;;;9.15;1.73;;;12.00;99.80;;;;;;5054113;28;20066;-69
2022/04/09 12:33:18;;;;;;;4.72;1.30;;;11.80;99.50;;;;;;5054201;28;20078;-69
2022/04/09 12:35:43;;;;;;;4.82;1.13;;;12.10;98.50;;;;;;5053375;28;20056;-66
2022/04/09 12:38:09;;;;;;;6.70;1.50;;;12.20;98.10;;;;;;5054171;28;20079;-67
2022/04/09 12:40:37;;;;;;;17.15;2.53;;;12.20;98.60;;;;;;5054274;28;20017;-70
2022/04/09 12:43:31;;;;;;;17.73;2.75;;;12.60;98.60;;;;;;5053047;28;20067;-68
2022/04/09 12:46:14;;;;;;;5.85;1.60;;;13.20;98.30;;;;;;5049371;28;20035;-70
2022/04/09 12:48:39;;;;;;;8.02;1.52;;;13.70;96.70;;;;;;5054128;28;20305;-69
2022/04/09 12:51:06;;;;;;;10.52;1.50;;;13.80;96.50;;;;;;5053573;28;20465;-70